createdAt,value
2019-05-18T00:04:17.883Z,59.85
2019-05-18T00:09:19.456Z,59.91
2019-05-18T00:14:21.141Z,59.89
2019-05-18T00:19:22.744Z,59.95
2019-05-18T00:24:24.304Z,60.00
2019-05-18T00:29:25.872Z,60.10
2019-05-18T00:34:27.472Z,60.23
2019-05-18T00:39:29.042Z,60.27
2019-05-18T00:44:30.615Z,60.27
2019-05-18T00:49:32.183Z,60.31
2019-05-18T00:54:33.866Z,60.36
2019-05-18T00:59:35.508Z,60.40
2019-05-18T01:04:37.063Z,60.51
2019-05-18T01:09:38.774Z,60.56
2019-05-18T01:14:40.334Z,60.64
2019-05-18T01:19:41.926Z,60.68
2019-05-18T01:24:43.504Z,60.74
2019-05-18T01:29:45.100Z,60.74
2019-05-18T01:34:46.854Z,60.84
2019-05-18T01:39:48.540Z,60.92
2019-05-18T01:44:50.242Z,60.92
2019-05-18T01:49:51.974Z,60.94
2019-05-18T01:54:53.553Z,61.00
2019-05-18T01:59:55.290Z,60.98
2019-05-18T02:04:56.976Z,61.06
2019-05-18T02:09:58.587Z,61.19
2019-05-18T02:15:00.232Z,61.29
2019-05-18T02:20:02.278Z,61.50
2019-05-18T02:25:04.135Z,62.05
2019-05-18T02:30:06.496Z,62.26
2019-05-18T02:35:08.197Z,62.47
2019-05-18T02:40:09.880Z,62.49
2019-05-18T02:45:11.806Z,62.64
2019-05-18T02:50:13.509Z,62.26
2019-05-18T02:55:15.204Z,62.29
2019-05-18T03:00:16.857Z,62.12
2019-05-18T03:05:18.757Z,61.89
2019-05-18T03:10:20.443Z,61.82
2019-05-18T03:15:22.135Z,61.87
2019-05-18T03:20:23.800Z,61.96
2019-05-18T03:25:25.410Z,62.06
2019-05-18T03:30:27.098Z,62.10
2019-05-18T03:35:28.731Z,62.12
2019-05-18T03:40:30.393Z,62.28
2019-05-18T03:45:31.958Z,62.37
2019-05-18T03:50:33.492Z,62.43
2019-05-18T03:55:35.052Z,62.53
2019-05-18T04:00:36.618Z,62.51
2019-05-18T04:05:38.182Z,62.41
2019-05-18T04:10:39.741Z,62.29
2019-05-18T04:15:41.304Z,62.37
2019-05-18T04:20:42.856Z,62.36
2019-05-18T04:25:44.426Z,62.38
2019-05-18T04:30:45.978Z,62.42
2019-05-18T04:35:47.519Z,62.46
2019-05-18T04:40:49.076Z,62.47
2019-05-18T04:45:50.633Z,62.47
2019-05-18T04:50:52.193Z,62.50
2019-05-18T04:55:53.781Z,62.56
2019-05-18T05:00:55.321Z,62.59
2019-05-18T05:05:56.865Z,62.59
2019-05-18T05:10:58.405Z,62.58
2019-05-18T05:15:59.945Z,62.60
2019-05-18T05:21:01.480Z,62.65
2019-05-18T05:26:03.135Z,62.65
2019-05-18T05:31:04.675Z,62.66
2019-05-18T05:36:06.216Z,62.66
2019-05-18T05:41:07.789Z,62.69
2019-05-18T05:46:09.359Z,62.69
2019-05-18T05:51:10.915Z,62.65
2019-05-18T05:56:12.547Z,62.71
2019-05-18T06:01:14.109Z,62.70
2019-05-18T06:06:15.659Z,62.67
2019-05-18T06:11:17.197Z,62.67
2019-05-18T06:16:18.745Z,62.66
2019-05-18T06:21:20.387Z,62.64
2019-05-18T06:26:24.223Z,62.65
2019-05-18T06:31:25.400Z,62.66
2019-05-18T06:36:26.962Z,62.65
2019-05-18T06:41:28.529Z,62.64
2019-05-18T06:46:30.104Z,62.64
2019-05-18T06:51:31.661Z,62.64
2019-05-18T06:56:33.614Z,62.58
2019-05-18T07:01:35.156Z,62.53
2019-05-18T07:06:36.719Z,62.60
2019-05-18T07:11:38.405Z,62.53
2019-05-18T07:16:39.950Z,62.51
2019-05-18T07:21:41.591Z,62.48
2019-05-18T07:26:43.148Z,62.34
2019-05-18T07:31:44.701Z,62.26
2019-05-18T07:36:46.250Z,62.42
2019-05-18T07:41:47.823Z,62.14
2019-05-18T07:46:49.406Z,61.92
2019-05-18T07:51:50.989Z,61.75
2019-05-18T07:56:52.705Z,61.84
2019-05-18T08:01:54.261Z,61.91
2019-05-18T08:06:55.879Z,61.63
2019-05-18T08:11:57.443Z,61.42
2019-05-18T08:16:59.016Z,61.72
2019-05-18T08:22:00.585Z,62.13
2019-05-18T08:27:02.557Z,61.74
2019-05-18T08:32:04.324Z,61.44
2019-05-18T08:37:05.917Z,60.85
2019-05-18T08:42:07.611Z,60.83
2019-05-18T08:47:09.149Z,61.20
2019-05-18T08:52:10.936Z,61.66
2019-05-18T08:57:12.483Z,61.06
2019-05-18T09:02:14.060Z,60.84
2019-05-18T09:07:15.645Z,60.83
2019-05-18T09:12:17.334Z,59.81
2019-05-18T09:17:18.890Z,59.99
2019-05-18T09:22:23.165Z,59.91
2019-05-18T09:27:24.144Z,60.21
2019-05-18T09:32:25.702Z,60.45
2019-05-18T09:37:27.252Z,60.28
2019-05-18T09:42:29.017Z,60.45
2019-05-18T09:47:30.569Z,59.98
2019-05-18T09:52:44.164Z,59.41
2019-05-18T09:57:35.772Z,59.42
2019-05-18T10:02:37.479Z,59.33
2019-05-18T10:07:39.065Z,58.90
2019-05-18T10:12:40.670Z,58.72
2019-05-18T10:17:42.261Z,58.75
2019-05-18T10:22:55.201Z,58.28
2019-05-18T10:27:47.377Z,58.46
2019-05-18T10:32:48.959Z,58.18
2019-05-18T10:37:50.533Z,58.60
2019-05-18T10:42:52.112Z,58.30
2019-05-18T10:47:55.355Z,57.19
2019-05-18T10:52:56.949Z,57.18
2019-05-18T10:57:58.602Z,57.40
2019-05-18T11:03:00.309Z,56.61
2019-05-18T11:08:02.900Z,56.08
2019-05-18T11:13:04.495Z,56.54
2019-05-18T11:18:06.168Z,55.91
2019-05-18T11:23:07.773Z,55.54
2019-05-18T11:28:09.588Z,55.52
2019-05-18T11:33:11.328Z,54.65
2019-05-18T11:38:13.051Z,54.46
2019-05-18T11:43:14.720Z,54.62
2019-05-18T11:48:16.356Z,54.20
2019-05-18T11:53:18.098Z,53.19
2019-05-18T11:58:19.712Z,52.19
2019-05-18T12:03:21.320Z,50.62
2019-05-18T12:08:22.984Z,50.33
2019-05-18T12:13:24.665Z,52.07
2019-05-18T12:18:26.276Z,52.55
2019-05-18T12:23:28.580Z,49.03
2019-05-18T12:28:31.533Z,50.42
2019-05-18T12:33:33.216Z,48.33
2019-05-18T12:38:34.798Z,42.21
2019-05-18T12:43:36.506Z,35.22
2019-05-18T12:48:38.214Z,41.43
2019-05-18T12:53:39.910Z,32.72
2019-05-18T12:58:41.474Z,31.42
2019-05-18T13:03:43.053Z,39.21
2019-05-18T13:08:44.729Z,44.56
2019-05-18T13:13:46.286Z,35.63
2019-05-18T13:18:47.868Z,30.47
2019-05-18T13:23:49.475Z,41.25
2019-05-18T13:28:51.153Z,41.42
2019-05-18T13:33:52.711Z,41.71
2019-05-18T13:38:54.386Z,44.36
2019-05-18T13:43:56.034Z,46.15
2019-05-18T13:48:57.592Z,45.06
2019-05-18T13:53:59.192Z,43.97
2019-05-18T13:59:00.806Z,44.17
2019-05-18T14:04:02.645Z,45.23
2019-05-18T14:09:04.652Z,46.11
2019-05-18T14:14:06.399Z,45.22
2019-05-18T14:19:08.085Z,47.06
2019-05-18T14:24:09.757Z,45.99
2019-05-18T14:29:11.366Z,44.68
2019-05-18T14:34:13.037Z,42.84
2019-05-18T14:39:15.486Z,41.91
2019-05-18T14:44:17.094Z,41.97
2019-05-18T14:49:18.670Z,42.15
2019-05-18T14:54:24.992Z,40.87
2019-05-18T14:59:23.722Z,38.94
2019-05-18T15:04:25.409Z,36.37
2019-05-18T15:09:26.995Z,34.87
2019-05-18T15:14:28.543Z,33.84
2019-05-18T15:19:30.147Z,32.57
2019-05-18T15:24:31.845Z,30.86
2019-05-18T15:29:33.435Z,28.91
2019-05-18T15:34:35.008Z,30.21
2019-05-18T15:39:36.577Z,26.19
2019-05-18T15:44:38.184Z,24.53
2019-05-18T15:49:39.755Z,23.39
2019-05-18T15:54:41.351Z,24.60
2019-05-18T15:59:42.959Z,22.28
2019-05-18T16:04:44.558Z,20.90
2019-05-18T16:09:46.335Z,20.07
2019-05-18T16:14:47.909Z,19.51
2019-05-18T16:19:49.576Z,19.61
2019-05-18T16:24:51.309Z,20.88
2019-05-18T16:29:52.871Z,25.68
2019-05-18T16:34:54.424Z,33.58
2019-05-18T16:39:56.078Z,38.60
2019-05-18T16:44:57.656Z,40.73
2019-05-18T16:49:59.299Z,41.41
2019-05-18T16:55:00.863Z,40.92
2019-05-18T17:00:03.672Z,40.29
2019-05-18T17:05:05.450Z,39.59
2019-05-18T17:10:07.509Z,39.92
2019-05-18T17:15:09.464Z,39.79
2019-05-18T17:20:11.489Z,38.43
2019-05-18T17:25:13.272Z,36.70
2019-05-18T17:30:15.447Z,36.60
2019-05-18T17:35:17.106Z,35.04
2019-05-18T17:40:18.853Z,34.22
2019-05-18T17:45:20.506Z,38.37
2019-05-18T17:50:22.161Z,40.61
2019-05-18T17:55:23.710Z,41.14
2019-05-18T18:00:25.362Z,40.30
2019-05-18T18:05:26.903Z,36.65
2019-05-18T18:10:28.589Z,34.03
2019-05-18T18:15:30.223Z,35.35
2019-05-18T18:20:31.891Z,36.89
2019-05-18T18:25:33.571Z,38.56
2019-05-18T18:30:35.253Z,39.69
2019-05-18T18:35:39.556Z,40.54
2019-05-18T18:40:40.525Z,41.58
2019-05-18T18:45:42.277Z,42.63
2019-05-18T18:50:43.950Z,43.63
2019-05-18T18:55:45.608Z,44.60
2019-05-18T19:00:47.176Z,45.29
2019-05-18T19:05:48.730Z,45.66
2019-05-18T19:10:50.389Z,45.87
2019-05-18T19:15:52.055Z,46.04
2019-05-18T19:20:53.640Z,46.16
2019-05-18T19:25:55.220Z,46.26
2019-05-18T19:30:56.781Z,46.40
2019-05-18T19:35:58.341Z,46.55
2019-05-18T19:40:59.925Z,46.71
2019-05-18T19:46:01.599Z,46.90
2019-05-18T19:51:03.268Z,47.12
2019-05-18T19:56:04.922Z,47.33
2019-05-18T20:01:06.494Z,47.56
2019-05-18T20:06:08.165Z,47.78
2019-05-18T20:11:09.721Z,48.10
2019-05-18T20:16:11.280Z,48.22
2019-05-18T20:21:12.825Z,48.40
2019-05-18T20:26:14.388Z,48.59
2019-05-18T20:31:15.950Z,48.70
2019-05-18T20:36:17.540Z,48.79
2019-05-18T20:41:19.136Z,48.89
2019-05-18T20:46:20.835Z,49.04
2019-05-18T20:51:22.385Z,49.25
2019-05-18T20:56:24.043Z,49.50
2019-05-18T21:01:25.740Z,49.75
2019-05-18T21:06:27.308Z,49.90
2019-05-18T21:11:28.972Z,50.01
2019-05-18T21:16:30.548Z,50.19
2019-05-18T21:21:32.233Z,50.34
2019-05-18T21:26:34.067Z,50.56
2019-05-18T21:31:35.618Z,50.79
2019-05-18T21:36:37.178Z,50.96
2019-05-18T21:41:38.725Z,51.11
2019-05-18T21:46:40.278Z,51.31
2019-05-18T21:51:41.840Z,51.53
2019-05-18T21:56:43.391Z,51.75
2019-05-18T22:01:44.958Z,52.24
2019-05-18T22:06:46.500Z,52.80
2019-05-18T22:11:48.175Z,52.94
2019-05-18T22:16:49.714Z,52.89
2019-05-18T22:21:51.287Z,52.77
2019-05-18T22:26:52.833Z,52.92
2019-05-18T22:31:54.496Z,52.96
2019-05-18T22:36:56.075Z,53.07
2019-05-18T22:41:57.744Z,53.23
2019-05-18T22:46:59.331Z,53.38
2019-05-18T22:52:00.914Z,53.45
2019-05-18T22:57:02.498Z,53.58
2019-05-18T23:02:04.171Z,53.80
2019-05-18T23:07:05.711Z,53.84
2019-05-18T23:12:07.425Z,54.04
2019-05-18T23:17:09.067Z,54.14
2019-05-18T23:22:10.627Z,54.20
2019-05-18T23:27:12.169Z,54.42
2019-05-18T23:32:13.844Z,54.43
2019-05-18T23:37:15.394Z,54.54
2019-05-18T23:42:16.954Z,54.69
2019-05-18T23:47:18.511Z,54.76
2019-05-18T23:52:20.063Z,54.81
2019-05-18T23:57:21.642Z,55.02
